Time;durP1;ratioP1;P1;durP2;ratioP2;P2;SDS_P1;SDS_P2;PMS_P1;PMS_P2;Temp;Humidity;BMP_temperature;BMP_pressure;BME280_temperature;BME280_humidity;BME280_pressure;Samples;Min_cycle;Max_cycle;Signal;HPM_P1;HPM_P2
2023/03/26 00:00:53;;;;;;;1.30;0.90;;;9.80;99.90;;;;;;4145398;28;20042;-66
2023/03/26 00:02:54;;;;;;;1.30;0.90;;;9.80;99.90;;;;;;4144308;28;20058;-66
2023/03/26 00:04:55;;;;;;;1.47;0.77;;;9.80;99.90;;;;;;4161796;28;20534;-66
2023/03/26 00:06:57;;;;;;;2.67;0.90;;;9.80;99.90;;;;;;4159536;28;20107;-66
2023/03/26 00:08:58;;;;;;;1.00;0.87;;;9.80;99.90;;;;;;4145629;28;20216;-66
2023/03/26 00:10:59;;;;;;;1.67;0.67;;;9.80;99.90;;;;;;4155121;28;21005;-66
2023/03/26 00:13:00;;;;;;;1.17;0.63;;;9.80;99.90;;;;;;4151726;28;20030;-67
2023/03/26 00:15:03;;;;;;;3.80;0.60;;;9.80;99.90;;;;;;4153470;28;20029;-66
2023/03/26 00:17:04;;;;;;;2.10;0.73;;;9.80;99.90;;;;;;4154831;28;20072;-66
2023/03/26 00:19:05;;;;;;;4.63;1.27;;;9.80;99.90;;;;;;4144349;28;20433;-67
2023/03/26 00:21:13;;;;;;;1.37;0.87;;;9.80;99.90;;;;;;4144271;28;20429;-66
2023/03/26 00:23:14;;;;;;;3.17;1.03;;;9.80;99.90;;;;;;4144786;28;20034;-66
2023/03/26 00:25:16;;;;;;;1.37;0.77;;;9.80;99.90;;;;;;4144373;28;20430;-66
2023/03/26 00:27:17;;;;;;;2.43;1.20;;;9.80;99.90;;;;;;4147537;28;20041;-67
2023/03/26 00:29:18;;;;;;;2.23;0.93;;;9.80;99.90;;;;;;4158899;28;20440;-71
2023/03/26 00:31:19;;;;;;;2.07;0.70;;;9.80;99.90;;;;;;4151784;28;21071;-66
2023/03/26 00:33:20;;;;;;;1.83;0.80;;;9.90;99.90;;;;;;4148765;28;20025;-66
2023/03/26 00:35:22;;;;;;;4.43;1.27;;;9.90;99.90;;;;;;4158186;28;20038;-69
2023/03/26 00:37:25;;;;;;;4.23;0.93;;;9.80;99.90;;;;;;4160017;28;20103;-65
2023/03/26 00:39:28;;;;;;;1.70;0.80;;;9.80;99.90;;;;;;4159137;28;20527;-66
2023/03/26 00:41:29;;;;;;;2.57;0.90;;;9.80;99.90;;;;;;4149306;28;20395;-66
2023/03/26 00:43:33;;;;;;;2.70;0.90;;;9.80;99.90;;;;;;4160731;28;20021;-66
2023/03/26 00:45:34;;;;;;;2.07;1.03;;;9.80;99.90;;;;;;4158547;28;20029;-66
2023/03/26 00:47:36;;;;;;;2.47;0.47;;;9.80;99.90;;;;;;4159068;28;20091;-66
2023/03/26 00:49:38;;;;;;;2.10;0.97;;;9.80;99.90;;;;;;4144141;28;20486;-68
2023/03/26 00:51:40;;;;;;;2.13;0.80;;;9.80;99.90;;;;;;4144055;28;20050;-66
2023/03/26 00:53:43;;;;;;;5.30;1.27;;;9.80;99.90;;;;;;4144431;28;20544;-66
2023/03/26 00:55:46;;;;;;;4.23;1.00;;;9.80;99.90;;;;;;4143980;28;20030;-66
2023/03/26 00:57:47;;;;;;;3.50;0.70;;;9.80;99.90;;;;;;4142690;28;20097;-66
2023/03/26 00:59:49;;;;;;;0.97;0.40;;;9.70;99.90;;;;;;4143766;28;20037;-66
2023/03/26 01:01:53;;;;;;;2.03;0.80;;;9.70;99.90;;;;;;4144949;28;20034;-68
2023/03/26 01:04:18;;;;;;;0.63;0.53;;;9.70;99.90;;;;;;4153742;28;20037;-65
2023/03/26 01:06:31;;;;;;;3.23;0.80;;;9.70;99.90;;;;;;4145979;28;20034;-66
2023/03/26 01:08:37;;;;;;;2.10;0.60;;;9.70;99.90;;;;;;4143851;28;20033;-65
2023/03/26 01:10:38;;;;;;;4.27;0.90;;;9.60;99.90;;;;;;4146538;28;20084;-65
2023/03/26 01:12:39;;;;;;;3.67;1.37;;;9.60;99.90;;;;;;4159835;28;20029;-65
2023/03/26 01:14:41;;;;;;;4.43;0.87;;;9.70;99.90;;;;;;4160077;28;20103;-65
2023/03/26 01:16:50;;;;;;;1.83;0.70;;;9.60;99.90;;;;;;4159433;28;20476;-66
2023/03/26 01:18:52;;;;;;;2.07;0.63;;;9.60;99.90;;;;;;4155729;28;20061;-65
2023/03/26 01:21:03;;;;;;;2.87;1.40;;;9.60;99.90;;;;;;4143246;28;20081;-64
2023/03/26 01:23:06;;;;;;;3.87;0.80;;;9.60;99.90;;;;;;4144431;28;20049;-69
2023/03/26 01:25:08;;;;;;;1.20;0.80;;;9.50;99.90;;;;;;4146579;28;20037;-65
2023/03/26 01:27:09;;;;;;;1.20;0.87;;;9.50;99.90;;;;;;4157135;28;20439;-65
2023/03/26 01:29:42;;;;;;;2.00;0.90;;;9.40;99.90;;;;;;4157596;28;20037;-65
2023/03/26 01:32:08;;;;;;;1.93;0.83;;;9.40;99.90;;;;;;4156657;28;20818;-67
2023/03/26 01:34:29;;;;;;;2.17;0.73;;;9.40;99.90;;;;;;4156213;28;20025;-71
2023/03/26 01:36:45;;;;;;;4.37;1.70;;;9.30;99.90;;;;;;4149482;28;20034;-66
2023/03/26 01:38:58;;;;;;;1.97;0.70;;;9.30;99.90;;;;;;4153698;28;20029;-71
2023/03/26 01:41:30;;;;;;;1.77;0.60;;;9.30;99.90;;;;;;4159577;28;20041;-69
2023/03/26 01:43:40;;;;;;;1.87;1.20;;;9.30;99.90;;;;;;4159714;28;20083;-66
2023/03/26 01:45:44;;;;;;;2.13;0.93;;;9.30;99.90;;;;;;4147257;28;20042;-66
2023/03/26 01:47:46;;;;;;;6.00;0.90;;;9.20;99.90;;;;;;4147052;28;20034;-66
2023/03/26 01:49:47;;;;;;;3.07;0.90;;;9.20;99.90;;;;;;4154224;28;20104;-64
2023/03/26 01:51:50;;;;;;;2.40;1.03;;;9.20;99.90;;;;;;4143569;28;20030;-65
2023/03/26 01:53:52;;;;;;;2.40;1.20;;;9.10;99.90;;;;;;4143765;28;20537;-64
2023/03/26 01:56:04;;;;;;;2.03;0.90;;;9.10;99.90;;;;;;4143183;28;20034;-70
2023/03/26 01:58:38;;;;;;;1.30;0.93;;;9.10;99.90;;;;;;4143807;28;20046;-66
2023/03/26 02:00:52;;;;;;;2.47;1.40;;;9.10;99.90;;;;;;4143324;28;20386;-67
2023/03/26 02:03:04;;;;;;;3.33;1.07;;;9.10;99.90;;;;;;4143500;28;20021;-66
2023/03/26 02:05:11;;;;;;;4.13;1.63;;;9.10;99.90;;;;;;4145004;28;20046;-64
2023/03/26 02:07:22;;;;;;;2.43;1.07;;;9.00;99.90;;;;;;4146711;28;20632;-65
2023/03/26 02:09:29;;;;;;;3.10;1.03;;;9.00;99.90;;;;;;4159071;28;20037;-67
2023/03/26 02:11:30;;;;;;;1.40;0.90;;;9.00;99.90;;;;;;4152628;28;20030;-68
2023/03/26 02:13:31;;;;;;;1.13;0.63;;;9.00;99.90;;;;;;4152055;28;20069;-67
2023/03/26 02:15:32;;;;;;;2.40;1.00;;;9.00;99.90;;;;;;4157859;28;20041;-71
2023/03/26 02:17:35;;;;;;;1.60;1.03;;;8.90;99.90;;;;;;4148388;28;20120;-68
2023/03/26 02:19:41;;;;;;;2.07;1.30;;;8.90;99.90;;;;;;4146718;28;20025;-70
2023/03/26 02:21:42;;;;;;;3.03;0.90;;;8.80;99.90;;;;;;4145862;28;20116;-65
2023/03/26 02:23:46;;;;;;;2.93;1.00;;;8.80;99.90;;;;;;4146844;28;20030;-66
2023/03/26 02:25:47;;;;;;;2.77;1.30;;;8.80;99.90;;;;;;4145772;28;20026;-68
2023/03/26 02:27:49;;;;;;;2.30;1.00;;;8.70;99.90;;;;;;4146936;28;20360;-65
2023/03/26 02:29:51;;;;;;;1.57;1.03;;;8.70;99.90;;;;;;4145718;28;20070;-64
2023/03/26 02:31:52;;;;;;;1.40;0.90;;;8.60;99.90;;;;;;4148119;28;20474;-70
2023/03/26 02:33:54;;;;;;;1.87;1.10;;;8.60;99.90;;;;;;4156336;28;20022;-64
2023/03/26 02:36:00;;;;;;;3.23;1.00;;;8.60;99.90;;;;;;4146391;28;20430;-64
2023/03/26 02:38:01;;;;;;;2.80;1.30;;;8.60;99.90;;;;;;4146108;28;20033;-65
2023/03/26 02:40:09;;;;;;;3.47;0.93;;;8.60;99.90;;;;;;4146113;28;20034;-65
2023/03/26 02:42:10;;;;;;;2.17;1.00;;;8.50;99.90;;;;;;4145594;28;20055;-66
2023/03/26 02:44:12;;;;;;;4.87;1.10;;;8.50;99.90;;;;;;4151395;28;20429;-69
2023/03/26 02:46:13;;;;;;;1.60;0.87;;;8.50;99.90;;;;;;4160538;28;20068;-66
2023/03/26 02:48:14;;;;;;;2.87;1.23;;;8.50;99.90;;;;;;4145895;28;20491;-66
2023/03/26 02:50:15;;;;;;;3.50;1.17;;;8.40;99.90;;;;;;4145870;28;20113;-66
2023/03/26 02:52:17;;;;;;;1.53;1.00;;;8.40;99.90;;;;;;4146721;28;20030;-67
2023/03/26 02:54:18;;;;;;;3.63;1.47;;;8.40;99.90;;;;;;4145846;28;20100;-66
2023/03/26 02:56:19;;;;;;;2.93;1.17;;;8.40;99.90;;;;;;4145758;28;20050;-65
2023/03/26 02:58:20;;;;;;;2.90;1.07;;;8.30;99.90;;;;;;4162363;28;20049;-66
2023/03/26 03:00:22;;;;;;;5.13;1.13;;;8.30;99.90;;;;;;4161747;28;20088;-65
2023/03/26 03:02:24;;;;;;;4.37;1.40;;;8.30;99.90;;;;;;4162359;28;20467;-66
2023/03/26 03:04:25;;;;;;;3.53;1.37;;;8.20;99.90;;;;;;4151715;28;20111;-65
2023/03/26 03:06:29;;;;;;;1.37;1.23;;;8.20;99.90;;;;;;4145848;28;20033;-66
2023/03/26 03:08:30;;;;;;;2.13;1.20;;;8.20;99.90;;;;;;4145576;28;20535;-68
2023/03/26 03:10:32;;;;;;;4.20;1.70;;;8.20;99.90;;;;;;4148883;28;20088;-66
2023/03/26 03:12:34;;;;;;;2.37;1.20;;;8.20;99.90;;;;;;4146141;28;20049;-66
2023/03/26 03:14:35;;;;;;;1.23;1.00;;;8.20;99.90;;;;;;4148080;28;20045;-67
2023/03/26 03:16:36;;;;;;;2.13;1.33;;;8.10;99.90;;;;;;4160999;28;20422;-66
2023/03/26 03:18:37;;;;;;;1.70;1.40;;;8.10;99.90;;;;;;4150419;28;20045;-67
2023/03/26 03:20:38;;;;;;;2.30;1.63;;;8.10;99.90;;;;;;4145099;28;20077;-65
2023/03/26 03:22:40;;;;;;;4.13;1.47;;;8.00;99.90;;;;;;4156623;28;20079;-67
2023/03/26 03:24:42;;;;;;;1.73;1.30;;;8.00;99.90;;;;;;4161761;28;20022;-66
2023/03/26 03:26:45;;;;;;;5.80;1.70;;;7.90;99.90;;;;;;4161133;28;20017;-66
2023/03/26 03:28:49;;;;;;;3.17;1.70;;;7.90;99.90;;;;;;4149454;28;20073;-65
2023/03/26 03:30:56;;;;;;;3.67;1.50;;;7.90;99.90;;;;;;4144489;28;20038;-65
2023/03/26 03:32:58;;;;;;;2.70;1.50;;;7.80;99.90;;;;;;4145631;28;20160;-65
2023/03/26 03:34:59;;;;;;;3.83;1.70;;;7.80;99.90;;;;;;4154909;28;20072;-65
2023/03/26 03:37:01;;;;;;;3.27;1.73;;;7.80;99.90;;;;;;4146987;28;20510;-65
2023/03/26 03:39:02;;;;;;;4.50;1.70;;;7.80;99.90;;;;;;4144228;28;20041;-64
2023/03/26 03:41:03;;;;;;;3.53;1.60;;;7.80;99.90;;;;;;4145572;28;20530;-64
2023/03/26 03:43:04;;;;;;;2.90;1.60;;;7.70;99.90;;;;;;4145731;28;20080;-68
2023/03/26 03:45:06;;;;;;;7.30;2.00;;;7.70;99.90;;;;;;4147798;28;20491;-65
2023/03/26 03:47:09;;;;;;;3.13;1.73;;;7.70;99.90;;;;;;4155048;28;20440;-65
2023/03/26 03:49:10;;;;;;;2.13;1.63;;;7.60;99.90;;;;;;4144433;28;20037;-64
2023/03/26 03:51:12;;;;;;;3.13;1.50;;;7.60;99.90;;;;;;4153237;28;20034;-65
2023/03/26 03:53:14;;;;;;;2.03;1.43;;;7.60;99.90;;;;;;4146243;28;20092;-64
2023/03/26 03:55:16;;;;;;;4.60;1.77;;;7.50;99.90;;;;;;4144905;28;20026;-64
2023/03/26 03:57:17;;;;;;;3.27;1.33;;;7.50;99.90;;;;;;4159182;28;20865;-64
2023/03/26 03:59:19;;;;;;;4.30;1.50;;;7.50;99.90;;;;;;4161331;28;20111;-64
2023/03/26 04:01:21;;;;;;;1.30;1.00;;;7.40;99.90;;;;;;4159980;28;20026;-65
2023/03/26 04:03:22;;;;;;;4.73;1.87;;;7.40;99.90;;;;;;4148185;28;20025;-65
2023/03/26 04:05:23;;;;;;;2.30;1.67;;;7.40;99.90;;;;;;4152802;28;20029;-65
2023/03/26 04:07:25;;;;;;;1.17;1.00;;;7.40;99.90;;;;;;4148339;28;20049;-66
2023/03/26 04:09:26;;;;;;;7.90;1.97;;;7.30;99.90;;;;;;4144125;28;20042;-66
2023/03/26 04:11:27;;;;;;;1.50;1.40;;;7.40;99.90;;;;;;4143381;28;20073;-65
2023/03/26 04:13:28;;;;;;;1.13;1.03;;;7.30;99.90;;;;;;4144254;28;20026;-65
2023/03/26 04:15:29;;;;;;;1.83;1.00;;;7.30;99.90;;;;;;4159476;28;20038;-66
2023/03/26 04:17:31;;;;;;;2.53;1.20;;;7.40;99.90;;;;;;4144438;28;20033;-66
2023/03/26 04:19:32;;;;;;;4.73;1.47;;;7.40;99.90;;;;;;4146467;28;20049;-70
2023/03/26 04:21:36;;;;;;;3.10;1.40;;;7.30;99.90;;;;;;4149632;28;20112;-65
2023/03/26 04:23:38;;;;;;;2.40;1.40;;;7.30;99.90;;;;;;4136657;28;20034;-66
2023/03/26 04:25:49;;;;;;;5.33;1.70;;;7.30;99.90;;;;;;4151193;28;20045;-67
2023/03/26 04:27:50;;;;;;;2.27;1.27;;;7.30;99.90;;;;;;4157728;28;20033;-70
2023/03/26 04:29:51;;;;;;;3.97;1.10;;;7.30;99.90;;;;;;4160761;28;20021;-65
2023/03/26 04:32:05;;;;;;;2.33;1.30;;;7.30;99.90;;;;;;4160023;28;20041;-67
2023/03/26 04:34:13;;;;;;;2.73;1.00;;;7.30;99.90;;;;;;4158959;28;20037;-65
2023/03/26 04:36:15;;;;;;;4.07;1.57;;;7.30;99.90;;;;;;4146626;28;20030;-66
2023/03/26 04:38:17;;;;;;;5.37;1.47;;;7.30;99.90;;;;;;4144864;28;20029;-65
2023/03/26 04:40:20;;;;;;;2.70;1.53;;;7.40;99.90;;;;;;4148066;28;20355;-70
2023/03/26 04:42:21;;;;;;;3.93;1.97;;;7.80;99.90;;;;;;4160932;28;20021;-65
2023/03/26 04:44:23;;;;;;;4.20;1.97;;;8.20;99.90;;;;;;4152574;28;20134;-66
2023/03/26 04:46:24;;;;;;;6.07;1.90;;;8.40;99.90;;;;;;4144851;28;20072;-66
2023/03/26 04:48:25;;;;;;;6.83;2.40;;;8.60;99.90;;;;;;4143414;28;20060;-65
2023/03/26 04:50:26;;;;;;;4.90;2.27;;;8.90;99.90;;;;;;4147455;28;20030;-67
2023/03/26 04:52:27;;;;;;;4.60;1.70;;;9.10;99.90;;;;;;4145542;28;20049;-66
2023/03/26 04:54:29;;;;;;;3.70;1.37;;;9.60;99.90;;;;;;4155461;28;20042;-66
2023/03/26 04:56:51;;;;;;;2.63;1.30;;;10.10;99.90;;;;;;4145177;28;20029;-65
2023/03/26 04:59:00;;;;;;;2.87;1.40;;;10.60;99.90;;;;;;4140456;28;20049;-67
2023/03/26 05:01:04;;;;;;;1.70;1.20;;;11.20;99.90;;;;;;4144737;28;20429;-68
2023/03/26 05:03:08;;;;;;;1.37;1.03;;;11.80;99.90;;;;;;4144968;28;20103;-66
2023/03/26 05:05:10;;;;;;;1.30;1.10;;;12.10;99.90;;;;;;4144419;28;20042;-67
2023/03/26 05:07:17;;;;;;;2.20;1.10;;;12.40;99.90;;;;;;4144292;28;20034;-70
2023/03/26 05:09:19;;;;;;;2.87;1.40;;;12.80;99.90;;;;;;4144462;28;20045;-65
2023/03/26 05:11:20;;;;;;;2.20;1.10;;;12.90;99.90;;;;;;4160534;28;20041;-66
2023/03/26 05:13:22;;;;;;;2.47;1.10;;;13.20;99.90;;;;;;4155739;28;20034;-66
2023/03/26 05:15:23;;;;;;;3.27;1.20;;;13.50;99.90;;;;;;4151769;28;20041;-66
2023/03/26 05:17:25;;;;;;;3.30;1.30;;;13.90;99.90;;;;;;4155411;28;20099;-67
2023/03/26 05:19:26;;;;;;;6.97;1.87;;;14.30;99.90;;;;;;4143597;28;20650;-67
2023/03/26 05:21:27;;;;;;;1.48;0.82;;;14.80;99.90;;;;;;4143987;28;20050;-65
2023/03/26 05:23:29;;;;;;;3.67;1.33;;;15.20;99.90;;;;;;4143159;28;20486;-66
2023/03/26 05:25:30;;;;;;;6.80;1.40;;;15.60;99.90;;;;;;4144101;28;20104;-66
2023/03/26 05:27:32;;;;;;;2.08;1.40;;;15.80;99.50;;;;;;4143275;28;20030;-65
2023/03/26 05:29:33;;;;;;;5.93;1.45;;;16.00;98.90;;;;;;4144109;28;20510;-64
2023/03/26 05:31:34;;;;;;;2.65;1.42;;;16.20;98.60;;;;;;4143173;28;20107;-67
2023/03/26 05:33:35;;;;;;;2.63;1.27;;;16.60;97.90;;;;;;4144094;28;20041;-67
2023/03/26 05:35:37;;;;;;;3.08;1.55;;;16.90;97.30;;;;;;4142740;28;20137;-65
2023/03/26 05:37:38;;;;;;;2.80;1.55;;;17.30;96.40;;;;;;4144661;28;20046;-66
2023/03/26 05:39:40;;;;;;;1.95;1.63;;;17.70;95.50;;;;;;4143063;28;20038;-66
2023/03/26 05:41:41;;;;;;;3.80;2.15;;;18.10;94.90;;;;;;4143911;28;20548;-70
2023/03/26 05:43:43;;;;;;;2.15;1.63;;;18.50;94.00;;;;;;4143308;28;20034;-66
2023/03/26 05:45:46;;;;;;;2.08;1.35;;;18.80;93.30;;;;;;4149357;28;20030;-65
2023/03/26 05:47:53;;;;;;;3.88;1.35;;;19.10;92.50;;;;;;4156424;28;20028;-65
2023/03/26 05:49:54;;;;;;;3.47;1.20;;;19.20;91.70;;;;;;4159506;28;20063;-64
2023/03/26 05:51:55;;;;;;;3.58;1.25;;;19.40;90.70;;;;;;4157655;28;20033;-70
2023/03/26 05:53:56;;;;;;;0.85;0.82;;;19.20;90.20;;;;;;4161945;28;20030;-65
2023/03/26 05:55:57;;;;;;;2.40;1.13;;;19.10;89.70;;;;;;4162657;28;20045;-66
2023/03/26 05:57:58;;;;;;;1.60;0.73;;;19.40;88.80;;;;;;4147582;28;20076;-71
2023/03/26 06:00:00;;;;;;;1.75;0.70;;;19.50;87.30;;;;;;4150395;28;20104;-66
2023/03/26 06:02:01;;;;;;;1.20;0.80;;;19.70;85.60;;;;;;4145826;28;20080;-69
2023/03/26 06:04:02;;;;;;;1.13;0.80;;;19.70;84.50;;;;;;4146789;28;20061;-69
2023/03/26 06:06:14;;;;;;;0.82;0.70;;;19.90;83.40;;;;;;4146123;28;20766;-70
2023/03/26 06:08:15;;;;;;;5.47;0.90;;;19.40;80.70;;;;;;4146462;28;20135;-71
2023/03/26 06:10:17;;;;;;;4.25;0.93;;;19.20;81.90;;;;;;4146786;28;20084;-67
2023/03/26 06:12:18;;;;;;;4.22;0.75;;;19.60;81.50;;;;;;4146132;28;20033;-66
2023/03/26 06:14:19;;;;;;;2.45;1.00;;;20.00;80.40;;;;;;4145940;28;20038;-65
2023/03/26 06:16:20;;;;;;;2.22;0.70;;;20.40;79.20;;;;;;4147273;28;20025;-68
2023/03/26 06:18:22;;;;;;;1.60;1.15;;;20.00;78.50;;;;;;4155813;28;20440;-65
2023/03/26 06:20:23;;;;;;;1.67;0.68;;;19.90;78.20;;;;;;4162221;28;20107;-75
2023/03/26 06:22:24;;;;;;;0.82;0.60;;;19.80;77.60;;;;;;4162060;28;20485;-75
2023/03/26 06:24:25;;;;;;;1.00;0.57;;;19.80;76.80;;;;;;4161824;28;20037;-65
2023/03/26 06:26:26;;;;;;;2.75;1.40;;;19.30;76.10;;;;;;4158053;28;20739;-68
2023/03/26 06:28:27;;;;;;;1.55;1.23;;;18.80;77.00;;;;;;4145689;28;20108;-65
2023/03/26 06:30:28;;;;;;;2.60;0.75;;;18.60;77.10;;;;;;4144629;28;20046;-66
2023/03/26 06:32:29;;;;;;;2.03;0.52;;;18.90;76.90;;;;;;4144969;28;20720;-66
2023/03/26 06:34:31;;;;;;;1.92;0.77;;;18.60;76.50;;;;;;4146240;28;20025;-67
2023/03/26 06:36:32;;;;;;;3.67;0.60;;;19.10;76.10;;;;;;4146245;28;20092;-66
2023/03/26 06:38:33;;;;;;;1.60;0.85;;;19.10;75.20;;;;;;4149558;28;20099;-68
2023/03/26 06:40:34;;;;;;;1.20;0.55;;;18.90;75.00;;;;;;4161051;28;20033;-69
2023/03/26 06:42:35;;;;;;;1.77;0.52;;;18.60;74.90;;;;;;4162017;28;20173;-73
2023/03/26 06:44:37;;;;;;;0.93;0.40;;;18.60;75.20;;;;;;4158972;28;20033;-71
2023/03/26 06:46:38;;;;;;;0.45;0.35;;;18.90;75.00;;;;;;4150014;28;20099;-70
2023/03/26 06:48:40;;;;;;;3.83;0.40;;;18.80;74.20;;;;;;4145957;28;20721;-67
2023/03/26 06:50:42;;;;;;;1.83;0.30;;;18.30;74.00;;;;;;4145667;28;20029;-73
2023/03/26 06:52:43;;;;;;;2.13;0.40;;;17.60;74.70;;;;;;4144707;28;20567;-65
2023/03/26 06:54:44;;;;;;;0.68;0.30;;;17.10;75.10;;;;;;4149938;28;20045;-65
2023/03/26 06:56:45;;;;;;;1.17;0.60;;;16.90;75.60;;;;;;4149452;28;20038;-68
2023/03/26 06:58:46;;;;;;;0.77;0.35;;;17.30;76.00;;;;;;4144692;28;20041;-68
2023/03/26 07:00:51;;;;;;;0.40;0.28;;;17.60;75.80;;;;;;4147342;28;20535;-64
2023/03/26 07:02:52;;;;;;;0.90;0.38;;;17.80;75.30;;;;;;4152374;28;20068;-68
2023/03/26 07:04:53;;;;;;;0.73;0.40;;;18.00;75.10;;;;;;4160757;28;20072;-66
2023/03/26 07:06:54;;;;;;;0.95;0.50;;;18.00;74.30;;;;;;4157273;28;20071;-65
2023/03/26 07:08:56;;;;;;;1.08;0.43;;;17.70;74.70;;;;;;4152235;28;20441;-66
2023/03/26 07:10:57;;;;;;;2.03;0.55;;;17.50;74.80;;;;;;4144050;28;20042;-66
2023/03/26 07:12:58;;;;;;;0.60;0.22;;;17.60;75.20;;;;;;4144852;28;20026;-65
2023/03/26 07:15:01;;;;;;;0.38;0.20;;;17.90;74.70;;;;;;4143479;28;20426;-65
2023/03/26 07:17:03;;;;;;;0.80;0.40;;;17.80;74.00;;;;;;4144941;28;20034;-65
2023/03/26 07:19:04;;;;;;;0.30;0.30;;;17.60;73.80;;;;;;4144417;28;20042;-65
2023/03/26 07:21:06;;;;;;;0.73;0.20;;;17.00;74.10;;;;;;4144390;28;20046;-66
2023/03/26 07:23:09;;;;;;;1.38;0.30;;;16.50;74.70;;;;;;4144469;28;20104;-65
2023/03/26 07:25:11;;;;;;;0.90;0.30;;;16.20;75.70;;;;;;4144660;28;20540;-66
2023/03/26 07:27:40;;;;;;;1.80;0.50;;;16.10;75.90;;;;;;4146155;28;20018;-71
2023/03/26 07:30:07;;;;;;;0.73;0.30;;;15.80;76.00;;;;;;4146163;28;20038;-71
2023/03/26 07:32:42;;;;;;;1.70;0.30;;;15.80;76.60;;;;;;4143722;28;20046;-68
2023/03/26 07:35:09;;;;;;;0.47;0.32;;;15.90;76.70;;;;;;4157159;28;20555;-65
2023/03/26 07:37:27;;;;;;;1.08;0.32;;;16.40;76.70;;;;;;4155018;28;20038;-65
2023/03/26 07:39:52;;;;;;;3.50;0.30;;;16.80;76.10;;;;;;4154394;28;20030;-69
2023/03/26 07:42:00;;;;;;;1.75;0.68;;;17.20;75.40;;;;;;4149159;28;20075;-66
2023/03/26 07:44:40;;;;;;;0.65;0.30;;;17.30;74.90;;;;;;4153679;28;20030;-66
2023/03/26 07:46:41;;;;;;;0.40;0.20;;;16.50;74.70;;;;;;4062937;29;20107;-69
2023/03/26 07:48:46;;;;;;;0.90;0.35;;;16.20;75.90;;;;;;4116226;28;20037;-66
2023/03/26 07:50:48;;;;;;;5.93;4.10;;;16.20;76.10;;;;;;4144330;28;20088;-67
2023/03/26 07:52:49;;;;;;;7.85;2.78;;;16.40;76.00;;;;;;4152178;28;20099;-68
2023/03/26 07:54:51;;;;;;;1.40;1.17;;;16.40;76.40;;;;;;4145521;28;20064;-72
2023/03/26 07:56:59;;;;;;;1.60;0.55;;;16.60;76.50;;;;;;4144910;28;20087;-69
2023/03/26 07:59:11;;;;;;;1.95;0.75;;;16.10;76.50;;;;;;4155472;28;20038;-67
2023/03/26 08:01:35;;;;;;;2.92;0.40;;;16.00;76.80;;;;;;4155364;28;20099;-66
2023/03/26 08:03:54;;;;;;;3.10;0.50;;;15.90;77.10;;;;;;4156808;28;20037;-65
2023/03/26 08:06:13;;;;;;;1.15;0.60;;;15.80;77.50;;;;;;4145415;28;20449;-64
2023/03/26 08:08:20;;;;;;;0.88;0.43;;;16.20;77.60;;;;;;4151042;28;20072;-66
2023/03/26 08:10:33;;;;;;;2.03;0.73;;;16.70;77.30;;;;;;4160955;28;20033;-66
2023/03/26 08:12:56;;;;;;;0.85;0.30;;;16.90;75.30;;;;;;4160692;28;20083;-66
2023/03/26 08:15:48;;;;;;;0.50;0.10;;;16.50;76.00;;;;;;4152121;28;20030;-65
2023/03/26 08:17:59;;;;;;;1.60;0.20;;;16.20;75.90;;;;;;4139763;28;20046;-67
2023/03/26 08:20:11;;;;;;;1.70;0.35;;;15.70;76.50;;;;;;4144605;28;20092;-67
2023/03/26 08:22:26;;;;;;;0.65;0.40;;;15.40;77.00;;;;;;4144465;28;20618;-65
2023/03/26 08:24:52;;;;;;;0.52;0.30;;;15.40;77.50;;;;;;4143277;28;20084;-66
2023/03/26 08:27:12;;;;;;;0.28;0.10;;;15.30;77.30;;;;;;4148381;28;20072;-65
2023/03/26 08:29:26;;;;;;;2.17;0.65;;;15.40;77.50;;;;;;4159991;28;20111;-68
2023/03/26 08:31:34;;;;;;;1.17;0.20;;;15.50;77.50;;;;;;4161049;28;20030;-67
2023/03/26 08:33:35;;;;;;;0.47;0.20;;;15.60;77.00;;;;;;4158099;28;20056;-65
2023/03/26 08:35:41;;;;;;;0.77;0.40;;;15.70;76.60;;;;;;4148761;28;20037;-66
2023/03/26 08:37:44;;;;;;;1.58;0.15;;;15.50;77.00;;;;;;4144567;28;20034;-66
2023/03/26 08:39:45;;;;;;;0.25;0.10;;;15.40;77.50;;;;;;4145889;28;20088;-67
2023/03/26 08:42:10;;;;;;;0.85;0.30;;;15.50;77.90;;;;;;4147676;28;20080;-69
2023/03/26 08:44:58;;;;;;;0.50;0.10;;;15.70;77.60;;;;;;4145401;28;20076;-67
2023/03/26 08:47:20;;;;;;;0.17;0.17;;;16.00;75.90;;;;;;4075983;29;20102;-70
2023/03/26 08:49:36;;;;;;;0.52;0.20;;;16.30;75.80;;;;;;4124877;28;20772;-66
2023/03/26 08:51:50;;;;;;;0.85;0.32;;;16.10;75.70;;;;;;4143840;28;20072;-69
2023/03/26 08:53:54;;;;;;;1.73;0.20;;;16.10;74.50;;;;;;4143743;28;20076;-69
2023/03/26 08:56:26;;;;;;;0.63;0.20;;;16.00;75.30;;;;;;4143434;28;20088;-69
2023/03/26 08:58:39;;;;;;;0.93;0.40;;;16.10;74.90;;;;;;4143539;28;20022;-68
2023/03/26 09:00:40;;;;;;;0.30;0.20;;;16.10;75.50;;;;;;4143658;28;20453;-68
2023/03/26 09:03:03;;;;;;;1.15;0.30;;;16.00;74.60;;;;;;4143307;28;20026;-67
2023/03/26 09:05:09;;;;;;;1.95;0.30;;;15.80;74.00;;;;;;4143900;28;20072;-68
2023/03/26 09:07:22;;;;;;;0.68;0.30;;;15.60;74.50;;;;;;4143391;28;20050;-68
2023/03/26 09:10:08;;;;;;;0.98;0.30;;;15.50;74.20;;;;;;4144279;28;20081;-70
2023/03/26 09:12:27;;;;;;;2.30;0.20;;;15.40;74.00;;;;;;4142663;28;20617;-68
2023/03/26 09:14:46;;;;;;;0.40;0.05;;;15.40;73.80;;;;;;4144081;28;20096;-68
2023/03/26 09:17:18;;;;;;;4.95;0.22;;;15.30;73.40;;;;;;4143090;28;20026;-69
2023/03/26 09:19:44;;;;;;;3.13;0.25;;;15.40;71.60;;;;;;4143476;28;20100;-69
2023/03/26 09:22:14;;;;;;;5.72;0.10;;;15.10;69.90;;;;;;4145186;28;20107;-66
2023/03/26 09:24:37;;;;;;;2.42;1.75;;;15.00;70.00;;;;;;4142376;28;20037;-72
2023/03/26 09:27:22;;;;;;;9.75;4.68;;;14.90;70.60;;;;;;4159388;28;20037;-69
2023/03/26 09:29:35;;;;;;;1.75;0.52;;;14.90;70.30;;;;;;4159173;28;20543;-69
2023/03/26 09:31:56;;;;;;;7.73;5.17;;;14.80;70.50;;;;;;4156955;28;20103;-70
2023/03/26 09:34:27;;;;;;;4.10;2.30;;;14.80;71.20;;;;;;4141303;28;20037;-69
2023/03/26 09:36:42;;;;;;;5.63;4.13;;;14.90;71.40;;;;;;4127680;28;20129;-69
2023/03/26 09:39:07;;;;;;;1.10;0.80;;;15.00;70.90;;;;;;4152726;28;20038;-69
2023/03/26 09:41:20;;;;;;;3.73;1.10;;;15.20;71.30;;;;;;4157806;28;20042;-70
2023/03/26 09:43:56;;;;;;;5.28;3.35;;;15.50;71.10;;;;;;4150881;28;20390;-69
2023/03/26 09:46:09;;;;;;;1.35;1.13;;;15.40;69.80;;;;;;4142599;28;20514;-69
2023/03/26 09:48:22;;;;;;;3.13;1.90;;;15.40;70.50;;;;;;4143217;28;20052;-71
2023/03/26 09:51:05;;;;;;;3.38;2.15;;;15.50;70.40;;;;;;4142967;28;20149;-68
2023/03/26 09:53:32;;;;;;;5.40;2.15;;;15.50;70.20;;;;;;4150726;28;20071;-67
2023/03/26 09:55:58;;;;;;;6.20;2.55;;;15.60;71.10;;;;;;4111304;28;20038;-67
2023/03/26 09:58:20;;;;;;;3.20;1.27;;;15.70;69.60;;;;;;4127435;28;20093;-72
2023/03/26 10:00:24;;;;;;;8.25;1.55;;;15.70;70.40;;;;;;4126526;28;20077;-75
2023/03/26 10:02:37;;;;;;;2.60;0.40;;;15.60;69.60;;;;;;4137667;28;20030;-67
2023/03/26 10:05:20;;;;;;;1.50;0.70;;;15.50;69.50;;;;;;4142566;28;20505;-70
2023/03/26 10:07:30;;;;;;;1.67;1.10;;;15.30;70.00;;;;;;4152129;28;20092;-69
2023/03/26 10:09:59;;;;;;;1.30;0.75;;;15.30;70.40;;;;;;4158113;28;20072;-68
2023/03/26 10:12:23;;;;;;;3.08;0.50;;;15.40;69.90;;;;;;4152959;28;20034;-67
2023/03/26 10:14:48;;;;;;;3.58;1.13;;;15.40;68.90;;;;;;4157104;28;20091;-65
2023/03/26 10:17:20;;;;;;;1.10;0.20;;;15.20;68.90;;;;;;4158473;28;20083;-66
2023/03/26 10:19:33;;;;;;;5.25;0.30;;;15.00;69.10;;;;;;4145702;28;20788;-69
2023/03/26 10:21:58;;;;;;;2.70;0.53;;;14.80;70.10;;;;;;4144075;28;20030;-71
2023/03/26 10:24:26;;;;;;;0.57;0.30;;;14.90;70.70;;;;;;4148008;28;20090;-69
2023/03/26 10:26:36;;;;;;;3.83;0.32;;;15.00;70.60;;;;;;4142116;28;20029;-67
2023/03/26 10:29:04;;;;;;;5.13;0.68;;;15.00;70.10;;;;;;4143039;28;20025;-65
2023/03/26 10:31:27;;;;;;;0.80;0.20;;;15.10;69.90;;;;;;4145214;28;20034;-67
2023/03/26 10:33:52;;;;;;;0.90;0.40;;;15.20;70.20;;;;;;4157334;28;20037;-66
2023/03/26 10:36:08;;;;;;;3.70;1.00;;;15.30;68.70;;;;;;4159028;28;20037;-72
2023/03/26 10:38:54;;;;;;;1.67;0.98;;;15.30;69.40;;;;;;4159187;28;20110;-67
2023/03/26 10:41:15;;;;;;;1.33;0.40;;;15.40;69.70;;;;;;4162269;28;20424;-70
2023/03/26 10:43:23;;;;;;;7.30;0.82;;;15.40;69.80;;;;;;4130046;28;20065;-73
2023/03/26 10:45:24;;;;;;;1.02;0.77;;;15.50;70.10;;;;;;4160957;28;20424;-69
2023/03/26 10:47:49;;;;;;;2.80;0.80;;;15.50;69.70;;;;;;4144720;28;20040;-68
2023/03/26 10:49:58;;;;;;;2.75;0.50;;;15.40;69.70;;;;;;4145811;28;20030;-64
2023/03/26 10:52:11;;;;;;;5.68;0.55;;;15.50;69.70;;;;;;4158312;28;20021;-67
2023/03/26 10:54:33;;;;;;;0.73;0.35;;;15.70;69.80;;;;;;4162159;28;20071;-68
2023/03/26 10:56:45;;;;;;;1.48;0.45;;;15.80;68.00;;;;;;4161191;28;20444;-67
2023/03/26 10:58:46;;;;;;;4.38;0.47;;;15.60;67.70;;;;;;4152685;28;20029;-71
2023/03/26 11:00:56;;;;;;;1.00;0.60;;;15.60;68.10;;;;;;4155968;28;20096;-71
2023/03/26 11:03:18;;;;;;;2.00;0.47;;;15.60;68.20;;;;;;4162343;28;20041;-66
2023/03/26 11:05:26;;;;;;;0.75;0.30;;;15.60;67.60;;;;;;4161342;28;20473;-68
2023/03/26 11:07:32;;;;;;;3.00;0.70;;;15.60;67.30;;;;;;4160073;28;20037;-70
2023/03/26 11:10:05;;;;;;;0.52;0.40;;;15.60;67.20;;;;;;4161834;28;20485;-70